sensor_id;sensor_type;location;lat;lon;timestamp;P1;durP1;ratioP1;P2;durP2;ratioP2
66667;SDS011;57205;51.438;-2.006;2022-11-30T00:01:51;15.00;;;7.72;;
66667;SDS011;57205;51.438;-2.006;2022-11-30T00:04:16;12.40;;;7.35;;
66667;SDS011;57205;51.438;-2.006;2022-11-30T00:06:42;14.00;;;8.13;;
66667;SDS011;57205;51.438;-2.006;2022-11-30T00:09:07;15.23;;;8.25;;
66667;SDS011;57205;51.438;-2.006;2022-11-30T00:11:33;15.43;;;8.05;;
66667;SDS011;57205;51.438;-2.006;2022-11-30T00:13:58;15.43;;;8.27;;
66667;SDS011;57205;51.438;-2.006;2022-11-30T00:16:23;11.73;;;7.95;;
66667;SDS011;57205;51.438;-2.006;2022-11-30T00:18:49;14.68;;;8.10;;
66667;SDS011;57205;51.438;-2.006;2022-11-30T00:21:15;15.00;;;8.13;;
66667;SDS011;57205;51.438;-2.006;2022-11-30T00:23:41;15.27;;;8.98;;
66667;SDS011;57205;51.438;-2.006;2022-11-30T00:26:09;18.98;;;10.02;;
66667;SDS011;57205;51.438;-2.006;2022-11-30T00:28:36;13.30;;;8.27;;
66667;SDS011;57205;51.438;-2.006;2022-11-30T00:31:04;17.75;;;9.23;;
66667;SDS011;57205;51.438;-2.006;2022-11-30T00:33:32;12.20;;;6.15;;
66667;SDS011;57205;51.438;-2.006;2022-11-30T00:36:03;11.18;;;7.50;;
66667;SDS011;57205;51.438;-2.006;2022-11-30T00:38:34;14.65;;;8.25;;
66667;SDS011;57205;51.438;-2.006;2022-11-30T00:41:00;14.73;;;8.32;;
66667;SDS011;57205;51.438;-2.006;2022-11-30T00:43:26;13.50;;;8.82;;
66667;SDS011;57205;51.438;-2.006;2022-11-30T00:45:51;15.45;;;9.48;;
66667;SDS011;57205;51.438;-2.006;2022-11-30T00:48:17;15.73;;;9.40;;
66667;SDS011;57205;51.438;-2.006;2022-11-30T00:50:42;15.55;;;9.02;;
66667;SDS011;57205;51.438;-2.006;2022-11-30T00:53:08;14.05;;;8.30;;
66667;SDS011;57205;51.438;-2.006;2022-11-30T00:55:33;14.68;;;8.73;;
66667;SDS011;57205;51.438;-2.006;2022-11-30T00:57:59;13.23;;;7.63;;
66667;SDS011;57205;51.438;-2.006;2022-11-30T01:00:25;15.52;;;8.52;;
66667;SDS011;57205;51.438;-2.006;2022-11-30T01:02:54;13.98;;;9.60;;
66667;SDS011;57205;51.438;-2.006;2022-11-30T01:05:20;14.98;;;9.32;;
66667;SDS011;57205;51.438;-2.006;2022-11-30T01:07:45;15.52;;;10.32;;
66667;SDS011;57205;51.438;-2.006;2022-11-30T01:10:11;14.38;;;9.90;;
66667;SDS011;57205;51.438;-2.006;2022-11-30T01:12:36;14.57;;;9.57;;
66667;SDS011;57205;51.438;-2.006;2022-11-30T01:15:02;14.75;;;9.07;;
66667;SDS011;57205;51.438;-2.006;2022-11-30T01:17:27;14.80;;;8.13;;
66667;SDS011;57205;51.438;-2.006;2022-11-30T01:19:53;16.45;;;9.00;;
66667;SDS011;57205;51.438;-2.006;2022-11-30T01:22:18;16.15;;;9.02;;
66667;SDS011;57205;51.438;-2.006;2022-11-30T01:24:44;14.85;;;8.50;;
66667;SDS011;57205;51.438;-2.006;2022-11-30T01:27:09;14.93;;;8.00;;
66667;SDS011;57205;51.438;-2.006;2022-11-30T01:29:35;14.10;;;8.18;;
66667;SDS011;57205;51.438;-2.006;2022-11-30T01:32:01;13.88;;;8.15;;
66667;SDS011;57205;51.438;-2.006;2022-11-30T01:34:26;14.77;;;8.55;;
66667;SDS011;57205;51.438;-2.006;2022-11-30T01:36:51;17.65;;;9.43;;
66667;SDS011;57205;51.438;-2.006;2022-11-30T01:39:17;14.85;;;8.95;;
66667;SDS011;57205;51.438;-2.006;2022-11-30T01:41:42;16.80;;;9.32;;
66667;SDS011;57205;51.438;-2.006;2022-11-30T01:49:32;16.20;;;8.98;;
66667;SDS011;57205;51.438;-2.006;2022-11-30T01:54:50;14.65;;;8.77;;
66667;SDS011;57205;51.438;-2.006;2022-11-30T01:57:28;15.43;;;9.48;;
66667;SDS011;57205;51.438;-2.006;2022-11-30T01:59:59;18.27;;;9.30;;
66667;SDS011;57205;51.438;-2.006;2022-11-30T02:03:08;17.90;;;9.57;;
66667;SDS011;57205;51.438;-2.006;2022-11-30T02:05:17;16.50;;;9.43;;
66667;SDS011;57205;51.438;-2.006;2022-11-30T02:07:45;17.60;;;8.75;;
66667;SDS011;57205;51.438;-2.006;2022-11-30T02:10:14;18.70;;;9.98;;
66667;SDS011;57205;51.438;-2.006;2022-11-30T02:21:38;19.30;;;9.63;;
66667;SDS011;57205;51.438;-2.006;2022-11-30T02:24:33;15.48;;;8.70;;
66667;SDS011;57205;51.438;-2.006;2022-11-30T02:27:12;15.55;;;9.23;;
66667;SDS011;57205;51.438;-2.006;2022-11-30T02:29:47;17.67;;;9.18;;
66667;SDS011;57205;51.438;-2.006;2022-11-30T02:32:21;16.70;;;8.57;;
66667;SDS011;57205;51.438;-2.006;2022-11-30T02:34:53;14.27;;;8.50;;
66667;SDS011;57205;51.438;-2.006;2022-11-30T02:37:22;17.17;;;9.50;;
66667;SDS011;57205;51.438;-2.006;2022-11-30T02:39:49;17.35;;;9.05;;
66667;SDS011;57205;51.438;-2.006;2022-11-30T02:42:15;19.23;;;9.50;;
66667;SDS011;57205;51.438;-2.006;2022-11-30T02:44:41;17.20;;;9.10;;
66667;SDS011;57205;51.438;-2.006;2022-11-30T02:49:53;18.58;;;10.50;;
66667;SDS011;57205;51.438;-2.006;2022-11-30T02:52:25;17.83;;;8.23;;
66667;SDS011;57205;51.438;-2.006;2022-11-30T02:54:52;21.48;;;9.95;;
66667;SDS011;57205;51.438;-2.006;2022-11-30T02:57:23;20.67;;;9.43;;
66667;SDS011;57205;51.438;-2.006;2022-11-30T02:59:48;22.70;;;10.90;;
66667;SDS011;57205;51.438;-2.006;2022-11-30T03:02:14;19.42;;;9.75;;
66667;SDS011;57205;51.438;-2.006;2022-11-30T03:04:39;22.48;;;10.07;;
66667;SDS011;57205;51.438;-2.006;2022-11-30T03:07:04;18.15;;;8.68;;
66667;SDS011;57205;51.438;-2.006;2022-11-30T03:09:30;17.88;;;8.65;;
66667;SDS011;57205;51.438;-2.006;2022-11-30T03:11:56;17.95;;;9.23;;
66667;SDS011;57205;51.438;-2.006;2022-11-30T03:14:21;19.02;;;9.10;;
66667;SDS011;57205;51.438;-2.006;2022-11-30T03:16:46;17.70;;;9.35;;
66667;SDS011;57205;51.438;-2.006;2022-11-30T03:19:12;18.83;;;8.73;;
66667;SDS011;57205;51.438;-2.006;2022-11-30T03:21:38;18.67;;;9.70;;
66667;SDS011;57205;51.438;-2.006;2022-11-30T03:24:03;19.23;;;10.35;;
66667;SDS011;57205;51.438;-2.006;2022-11-30T03:26:29;18.45;;;8.52;;
66667;SDS011;57205;51.438;-2.006;2022-11-30T03:28:54;19.98;;;8.98;;
66667;SDS011;57205;51.438;-2.006;2022-11-30T03:31:20;18.52;;;9.27;;
66667;SDS011;57205;51.438;-2.006;2022-11-30T03:33:45;18.25;;;9.15;;
66667;SDS011;57205;51.438;-2.006;2022-11-30T03:36:11;21.30;;;8.63;;
66667;SDS011;57205;51.438;-2.006;2022-11-30T03:38:36;18.13;;;9.35;;
66667;SDS011;57205;51.438;-2.006;2022-11-30T03:41:04;17.85;;;9.18;;
66667;SDS011;57205;51.438;-2.006;2022-11-30T03:43:34;19.15;;;8.52;;
66667;SDS011;57205;51.438;-2.006;2022-11-30T03:46:00;22.85;;;8.30;;
66667;SDS011;57205;51.438;-2.006;2022-11-30T03:48:26;18.67;;;9.13;;
66667;SDS011;57205;51.438;-2.006;2022-11-30T03:50:52;18.23;;;9.40;;
66667;SDS011;57205;51.438;-2.006;2022-11-30T03:53:18;18.67;;;9.07;;
66667;SDS011;57205;51.438;-2.006;2022-11-30T03:55:45;20.13;;;8.68;;
66667;SDS011;57205;51.438;-2.006;2022-11-30T03:58:15;17.30;;;8.35;;
66667;SDS011;57205;51.438;-2.006;2022-11-30T04:00:40;21.73;;;10.00;;
66667;SDS011;57205;51.438;-2.006;2022-11-30T04:03:06;21.67;;;10.02;;
66667;SDS011;57205;51.438;-2.006;2022-11-30T04:05:31;17.65;;;8.88;;
66667;SDS011;57205;51.438;-2.006;2022-11-30T04:07:56;18.48;;;9.45;;
66667;SDS011;57205;51.438;-2.006;2022-11-30T04:10:22;23.75;;;10.00;;
66667;SDS011;57205;51.438;-2.006;2022-11-30T04:12:48;18.70;;;9.50;;
66667;SDS011;57205;51.438;-2.006;2022-11-30T04:15:13;20.98;;;9.70;;
66667;SDS011;57205;51.438;-2.006;2022-11-30T04:17:39;18.83;;;9.73;;
66667;SDS011;57205;51.438;-2.006;2022-11-30T04:20:04;31.92;;;10.80;;
66667;SDS011;57205;51.438;-2.006;2022-11-30T04:22:30;19.75;;;9.27;;
66667;SDS011;57205;51.438;-2.006;2022-11-30T04:24:57;19.48;;;9.00;;
66667;SDS011;57205;51.438;-2.006;2022-11-30T04:27:23;21.85;;;10.25;;
66667;SDS011;57205;51.438;-2.006;2022-11-30T04:29:48;23.08;;;9.30;;
66667;SDS011;57205;51.438;-2.006;2022-11-30T04:32:13;21.00;;;10.00;;
66667;SDS011;57205;51.438;-2.006;2022-11-30T04:34:39;21.48;;;9.77;;
66667;SDS011;57205;51.438;-2.006;2022-11-30T04:37:04;20.50;;;8.82;;
66667;SDS011;57205;51.438;-2.006;2022-11-30T04:39:31;20.60;;;10.25;;
66667;SDS011;57205;51.438;-2.006;2022-11-30T04:41:58;21.00;;;10.00;;
66667;SDS011;57205;51.438;-2.006;2022-11-30T04:44:23;19.73;;;9.85;;
66667;SDS011;57205;51.438;-2.006;2022-11-30T04:46:49;19.45;;;10.52;;
66667;SDS011;57205;51.438;-2.006;2022-11-30T04:49:14;20.38;;;10.30;;
66667;SDS011;57205;51.438;-2.006;2022-11-30T04:51:39;19.15;;;10.30;;
66667;SDS011;57205;51.438;-2.006;2022-11-30T04:54:05;19.58;;;9.65;;
66667;SDS011;57205;51.438;-2.006;2022-11-30T04:56:30;18.10;;;9.57;;
66667;SDS011;57205;51.438;-2.006;2022-11-30T04:58:56;17.65;;;9.75;;
66667;SDS011;57205;51.438;-2.006;2022-11-30T05:01:21;20.83;;;10.68;;
66667;SDS011;57205;51.438;-2.006;2022-11-30T05:03:46;24.00;;;10.98;;
66667;SDS011;57205;51.438;-2.006;2022-11-30T05:06:12;22.80;;;9.77;;
66667;SDS011;57205;51.438;-2.006;2022-11-30T05:08:37;21.13;;;10.20;;
66667;SDS011;57205;51.438;-2.006;2022-11-30T05:11:02;18.63;;;10.07;;
66667;SDS011;57205;51.438;-2.006;2022-11-30T05:13:28;22.05;;;10.23;;
66667;SDS011;57205;51.438;-2.006;2022-11-30T05:15:53;19.75;;;9.75;;
66667;SDS011;57205;51.438;-2.006;2022-11-30T05:18:19;21.35;;;10.75;;
66667;SDS011;57205;51.438;-2.006;2022-11-30T05:20:48;18.35;;;10.80;;
66667;SDS011;57205;51.438;-2.006;2022-11-30T05:23:15;21.50;;;10.68;;
66667;SDS011;57205;51.438;-2.006;2022-11-30T05:25:41;27.20;;;10.63;;
66667;SDS011;57205;51.438;-2.006;2022-11-30T05:28:07;21.92;;;9.43;;
66667;SDS011;57205;51.438;-2.006;2022-11-30T05:30:32;19.45;;;9.10;;
66667;SDS011;57205;51.438;-2.006;2022-11-30T05:32:58;21.48;;;9.80;;
66667;SDS011;57205;51.438;-2.006;2022-11-30T05:35:23;22.70;;;8.85;;
66667;SDS011;57205;51.438;-2.006;2022-11-30T05:37:49;25.75;;;10.25;;
66667;SDS011;57205;51.438;-2.006;2022-11-30T05:40:14;26.15;;;9.98;;
66667;SDS011;57205;51.438;-2.006;2022-11-30T05:42:39;19.83;;;9.48;;
66667;SDS011;57205;51.438;-2.006;2022-11-30T05:45:05;24.27;;;9.63;;
66667;SDS011;57205;51.438;-2.006;2022-11-30T05:47:31;24.17;;;10.02;;
66667;SDS011;57205;51.438;-2.006;2022-11-30T05:49:56;21.75;;;10.20;;
66667;SDS011;57205;51.438;-2.006;2022-11-30T05:52:21;22.63;;;10.85;;
66667;SDS011;57205;51.438;-2.006;2022-11-30T05:54:47;22.88;;;9.27;;
66667;SDS011;57205;51.438;-2.006;2022-11-30T05:57:12;23.88;;;9.43;;
66667;SDS011;57205;51.438;-2.006;2022-11-30T05:59:38;23.15;;;9.25;;
66667;SDS011;57205;51.438;-2.006;2022-11-30T06:02:03;20.15;;;9.75;;
66667;SDS011;57205;51.438;-2.006;2022-11-30T06:04:28;20.02;;;9.27;;
66667;SDS011;57205;51.438;-2.006;2022-11-30T06:06:54;21.20;;;9.13;;
66667;SDS011;57205;51.438;-2.006;2022-11-30T06:09:20;22.55;;;9.20;;
66667;SDS011;57205;51.438;-2.006;2022-11-30T06:11:45;21.77;;;11.23;;
66667;SDS011;57205;51.438;-2.006;2022-11-30T06:14:11;26.13;;;10.70;;
66667;SDS011;57205;51.438;-2.006;2022-11-30T06:16:37;22.83;;;9.80;;
66667;SDS011;57205;51.438;-2.006;2022-11-30T06:19:03;22.33;;;9.32;;
66667;SDS011;57205;51.438;-2.006;2022-11-30T06:21:29;19.25;;;9.30;;
66667;SDS011;57205;51.438;-2.006;2022-11-30T06:23:54;25.15;;;9.70;;
66667;SDS011;57205;51.438;-2.006;2022-11-30T06:26:20;25.42;;;9.55;;
66667;SDS011;57205;51.438;-2.006;2022-11-30T06:28:46;29.58;;;9.43;;
66667;SDS011;57205;51.438;-2.006;2022-11-30T06:31:11;29.23;;;10.88;;
66667;SDS011;57205;51.438;-2.006;2022-11-30T06:33:37;27.88;;;10.88;;
66667;SDS011;57205;51.438;-2.006;2022-11-30T06:36:03;27.77;;;9.93;;
66667;SDS011;57205;51.438;-2.006;2022-11-30T06:38:29;26.52;;;10.05;;
66667;SDS011;57205;51.438;-2.006;2022-11-30T06:41:00;25.13;;;10.88;;
66667;SDS011;57205;51.438;-2.006;2022-11-30T06:43:30;27.63;;;10.40;;
66667;SDS011;57205;51.438;-2.006;2022-11-30T06:45:57;28.20;;;10.75;;
66667;SDS011;57205;51.438;-2.006;2022-11-30T06:48:22;24.13;;;11.85;;
66667;SDS011;57205;51.438;-2.006;2022-11-30T06:50:48;32.00;;;11.18;;
66667;SDS011;57205;51.438;-2.006;2022-11-30T06:53:13;30.30;;;11.63;;
66667;SDS011;57205;51.438;-2.006;2022-11-30T06:55:38;26.88;;;10.38;;
66667;SDS011;57205;51.438;-2.006;2022-11-30T06:58:07;29.27;;;11.52;;
66667;SDS011;57205;51.438;-2.006;2022-11-30T07:00:33;25.65;;;11.57;;
66667;SDS011;57205;51.438;-2.006;2022-11-30T07:03:00;28.77;;;11.32;;
66667;SDS011;57205;51.438;-2.006;2022-11-30T07:05:26;28.90;;;11.00;;
66667;SDS011;57205;51.438;-2.006;2022-11-30T07:07:51;32.95;;;13.70;;
66667;SDS011;57205;51.438;-2.006;2022-11-30T07:10:17;36.60;;;13.90;;
66667;SDS011;57205;51.438;-2.006;2022-11-30T07:12:42;35.67;;;13.05;;
66667;SDS011;57205;51.438;-2.006;2022-11-30T07:15:09;37.35;;;15.15;;
66667;SDS011;57205;51.438;-2.006;2022-11-30T07:17:35;32.50;;;12.07;;
66667;SDS011;57205;51.438;-2.006;2022-11-30T07:20:00;32.63;;;11.63;;
66667;SDS011;57205;51.438;-2.006;2022-11-30T07:22:26;29.10;;;10.93;;
66667;SDS011;57205;51.438;-2.006;2022-11-30T07:24:51;39.38;;;12.32;;
66667;SDS011;57205;51.438;-2.006;2022-11-30T07:27:35;32.63;;;11.27;;
66667;SDS011;57205;51.438;-2.006;2022-11-30T07:30:00;30.13;;;10.90;;
66667;SDS011;57205;51.438;-2.006;2022-11-30T07:32:27;34.05;;;11.30;;
66667;SDS011;57205;51.438;-2.006;2022-11-30T07:34:52;37.30;;;13.07;;
66667;SDS011;57205;51.438;-2.006;2022-11-30T07:37:18;38.50;;;13.32;;
66667;SDS011;57205;51.438;-2.006;2022-11-30T07:39:43;38.83;;;14.07;;
66667;SDS011;57205;51.438;-2.006;2022-11-30T07:42:08;32.15;;;11.35;;
66667;SDS011;57205;51.438;-2.006;2022-11-30T07:44:34;27.23;;;11.40;;
66667;SDS011;57205;51.438;-2.006;2022-11-30T07:47:00;35.92;;;12.13;;
66667;SDS011;57205;51.438;-2.006;2022-11-30T07:49:25;32.78;;;11.82;;
66667;SDS011;57205;51.438;-2.006;2022-11-30T07:51:51;33.28;;;11.88;;
66667;SDS011;57205;51.438;-2.006;2022-11-30T07:54:16;33.67;;;11.60;;
66667;SDS011;57205;51.438;-2.006;2022-11-30T07:56:43;34.45;;;12.18;;
66667;SDS011;57205;51.438;-2.006;2022-11-30T07:59:08;36.05;;;13.13;;
66667;SDS011;57205;51.438;-2.006;2022-11-30T08:01:34;31.30;;;12.15;;
66667;SDS011;57205;51.438;-2.006;2022-11-30T08:03:59;34.78;;;12.20;;
66667;SDS011;57205;51.438;-2.006;2022-11-30T08:06:26;42.88;;;15.70;;
66667;SDS011;57205;51.438;-2.006;2022-11-30T08:08:55;38.30;;;13.45;;
66667;SDS011;57205;51.438;-2.006;2022-11-30T08:11:23;34.33;;;12.25;;
66667;SDS011;57205;51.438;-2.006;2022-11-30T08:13:52;30.67;;;12.40;;
66667;SDS011;57205;51.438;-2.006;2022-11-30T08:16:22;35.30;;;12.80;;
66667;SDS011;57205;51.438;-2.006;2022-11-30T08:18:49;34.35;;;13.48;;
66667;SDS011;57205;51.438;-2.006;2022-11-30T08:21:17;30.08;;;10.70;;
66667;SDS011;57205;51.438;-2.006;2022-11-30T08:23:44;33.25;;;12.95;;
66667;SDS011;57205;51.438;-2.006;2022-11-30T08:26:13;39.88;;;12.07;;
66667;SDS011;57205;51.438;-2.006;2022-11-30T08:28:46;37.40;;;12.27;;
66667;SDS011;57205;51.438;-2.006;2022-11-30T08:31:22;42.50;;;12.30;;
66667;SDS011;57205;51.438;-2.006;2022-11-30T08:33:53;34.75;;;11.52;;
66667;SDS011;57205;51.438;-2.006;2022-11-30T08:36:20;40.35;;;12.27;;
66667;SDS011;57205;51.438;-2.006;2022-11-30T08:38:46;36.30;;;10.45;;
66667;SDS011;57205;51.438;-2.006;2022-11-30T08:41:13;34.05;;;11.20;;
66667;SDS011;57205;51.438;-2.006;2022-11-30T08:43:41;39.05;;;9.93;;
66667;SDS011;57205;51.438;-2.006;2022-11-30T08:46:07;37.63;;;11.10;;
66667;SDS011;57205;51.438;-2.006;2022-11-30T08:48:39;46.38;;;12.02;;
66667;SDS011;57205;51.438;-2.006;2022-11-30T08:51:05;47.47;;;13.05;;
66667;SDS011;57205;51.438;-2.006;2022-11-30T08:53:33;32.90;;;10.38;;
66667;SDS011;57205;51.438;-2.006;2022-11-30T08:56:00;32.58;;;12.35;;
66667;SDS011;57205;51.438;-2.006;2022-11-30T08:58:32;38.28;;;10.60;;
66667;SDS011;57205;51.438;-2.006;2022-11-30T09:01:09;39.42;;;11.18;;
66667;SDS011;57205;51.438;-2.006;2022-11-30T09:03:39;43.15;;;16.20;;
66667;SDS011;57205;51.438;-2.006;2022-11-30T09:06:06;38.20;;;12.68;;
66667;SDS011;57205;51.438;-2.006;2022-11-30T09:08:37;33.70;;;10.60;;
66667;SDS011;57205;51.438;-2.006;2022-11-30T09:11:10;37.78;;;11.15;;
66667;SDS011;57205;51.438;-2.006;2022-11-30T09:13:37;40.38;;;11.52;;
66667;SDS011;57205;51.438;-2.006;2022-11-30T09:16:03;31.48;;;11.55;;
66667;SDS011;57205;51.438;-2.006;2022-11-30T09:18:29;38.60;;;11.02;;
66667;SDS011;57205;51.438;-2.006;2022-11-30T09:20:59;36.95;;;11.32;;
66667;SDS011;57205;51.438;-2.006;2022-11-30T09:23:29;40.40;;;11.88;;
66667;SDS011;57205;51.438;-2.006;2022-11-30T09:25:58;36.42;;;11.60;;
66667;SDS011;57205;51.438;-2.006;2022-11-30T09:28:25;35.65;;;11.95;;
66667;SDS011;57205;51.438;-2.006;2022-11-30T09:30:51;32.08;;;9.93;;
66667;SDS011;57205;51.438;-2.006;2022-11-30T09:33:18;37.95;;;11.52;;
66667;SDS011;57205;51.438;-2.006;2022-11-30T09:35:44;46.40;;;16.77;;
66667;SDS011;57205;51.438;-2.006;2022-11-30T09:38:19;37.65;;;11.95;;
66667;SDS011;57205;51.438;-2.006;2022-11-30T09:40:44;34.35;;;12.63;;
66667;SDS011;57205;51.438;-2.006;2022-11-30T09:45:58;34.13;;;11.63;;
66667;SDS011;57205;51.438;-2.006;2022-11-30T09:51:24;35.50;;;11.15;;
66667;SDS011;57205;51.438;-2.006;2022-11-30T09:53:59;33.47;;;11.73;;
66667;SDS011;57205;51.438;-2.006;2022-11-30T09:56:35;33.95;;;12.40;;
66667;SDS011;57205;51.438;-2.006;2022-11-30T09:59:22;28.25;;;12.05;;
66667;SDS011;57205;51.438;-2.006;2022-11-30T10:01:53;38.20;;;13.75;;
66667;SDS011;57205;51.438;-2.006;2022-11-30T10:04:24;43.28;;;16.15;;
66667;SDS011;57205;51.438;-2.006;2022-11-30T10:09:53;31.52;;;11.27;;
66667;SDS011;57205;51.438;-2.006;2022-11-30T10:20:49;25.08;;;10.23;;
66667;SDS011;57205;51.438;-2.006;2022-11-30T10:31:16;23.10;;;9.40;;
66667;SDS011;57205;51.438;-2.006;2022-11-30T10:33:47;25.05;;;9.40;;
66667;SDS011;57205;51.438;-2.006;2022-11-30T10:36:36;28.85;;;10.23;;
66667;SDS011;57205;51.438;-2.006;2022-11-30T10:39:04;23.63;;;9.77;;
66667;SDS011;57205;51.438;-2.006;2022-11-30T10:41:42;25.77;;;10.98;;
66667;SDS011;57205;51.438;-2.006;2022-11-30T10:47:30;26.83;;;9.70;;
66667;SDS011;57205;51.438;-2.006;2022-11-30T10:49:48;24.45;;;9.40;;
66667;SDS011;57205;51.438;-2.006;2022-11-30T10:52:16;28.25;;;9.77;;
66667;SDS011;57205;51.438;-2.006;2022-11-30T10:54:47;25.70;;;10.02;;
66667;SDS011;57205;51.438;-2.006;2022-11-30T10:57:16;20.98;;;9.35;;
66667;SDS011;57205;51.438;-2.006;2022-11-30T10:59:47;23.73;;;9.32;;
66667;SDS011;57205;51.438;-2.006;2022-11-30T11:07:44;20.90;;;9.10;;
66667;SDS011;57205;51.438;-2.006;2022-11-30T11:10:14;26.92;;;10.07;;
66667;SDS011;57205;51.438;-2.006;2022-11-30T11:12:49;28.50;;;10.07;;
66667;SDS011;57205;51.438;-2.006;2022-11-30T11:15:18;25.05;;;10.95;;
66667;SDS011;57205;51.438;-2.006;2022-11-30T11:17:52;28.08;;;11.65;;
66667;SDS011;57205;51.438;-2.006;2022-11-30T11:20:39;22.48;;;10.75;;
66667;SDS011;57205;51.438;-2.006;2022-11-30T11:23:26;21.83;;;8.82;;
66667;SDS011;57205;51.438;-2.006;2022-11-30T11:25:56;26.20;;;10.00;;
66667;SDS011;57205;51.438;-2.006;2022-11-30T11:28:22;19.13;;;8.23;;
66667;SDS011;57205;51.438;-2.006;2022-11-30T11:30:51;20.20;;;8.55;;
66667;SDS011;57205;51.438;-2.006;2022-11-30T11:35:50;19.70;;;9.25;;
66667;SDS011;57205;51.438;-2.006;2022-11-30T11:38:22;19.40;;;8.63;;
66667;SDS011;57205;51.438;-2.006;2022-11-30T11:43:55;21.17;;;9.10;;
66667;SDS011;57205;51.438;-2.006;2022-11-30T11:46:23;21.08;;;8.30;;
66667;SDS011;57205;51.438;-2.006;2022-11-30T11:49:05;17.83;;;8.75;;
66667;SDS011;57205;51.438;-2.006;2022-11-30T11:51:42;18.90;;;9.45;;
66667;SDS011;57205;51.438;-2.006;2022-11-30T11:54:20;21.98;;;9.10;;
66667;SDS011;57205;51.438;-2.006;2022-11-30T11:56:49;21.10;;;9.23;;
66667;SDS011;57205;51.438;-2.006;2022-11-30T12:04:50;17.65;;;9.40;;
66667;SDS011;57205;51.438;-2.006;2022-11-30T12:07:31;18.92;;;8.95;;
66667;SDS011;57205;51.438;-2.006;2022-11-30T12:13:08;18.63;;;9.00;;
66667;SDS011;57205;51.438;-2.006;2022-11-30T12:15:41;16.02;;;8.27;;
66667;SDS011;57205;51.438;-2.006;2022-11-30T12:18:24;18.40;;;8.40;;
66667;SDS011;57205;51.438;-2.006;2022-11-30T12:21:12;18.23;;;9.23;;
66667;SDS011;57205;51.438;-2.006;2022-11-30T12:31:59;16.63;;;8.10;;
66667;SDS011;57205;51.438;-2.006;2022-11-30T12:34:32;15.95;;;7.70;;
66667;SDS011;57205;51.438;-2.006;2022-11-30T12:39:54;13.98;;;7.22;;
66667;SDS011;57205;51.438;-2.006;2022-11-30T12:45:13;12.83;;;6.80;;
66667;SDS011;57205;51.438;-2.006;2022-11-30T12:50:50;14.38;;;7.00;;
66667;SDS011;57205;51.438;-2.006;2022-11-30T12:53:29;15.45;;;8.13;;
66667;SDS011;57205;51.438;-2.006;2022-11-30T13:04:00;15.15;;;8.13;;
66667;SDS011;57205;51.438;-2.006;2022-11-30T13:06:48;13.93;;;7.72;;
66667;SDS011;57205;51.438;-2.006;2022-11-30T13:09:27;14.93;;;8.20;;
66667;SDS011;57205;51.438;-2.006;2022-11-30T13:12:02;15.10;;;9.18;;
66667;SDS011;57205;51.438;-2.006;2022-11-30T13:14:34;13.75;;;8.07;;
66667;SDS011;57205;51.438;-2.006;2022-11-30T13:17:21;15.93;;;7.82;;
66667;SDS011;57205;51.438;-2.006;2022-11-30T13:22:22;22.45;;;9.25;;
66667;SDS011;57205;51.438;-2.006;2022-11-30T13:25:02;18.42;;;9.27;;
66667;SDS011;57205;51.438;-2.006;2022-11-30T13:27:40;16.55;;;9.55;;
66667;SDS011;57205;51.438;-2.006;2022-11-30T13:32:54;21.10;;;11.30;;
66667;SDS011;57205;51.438;-2.006;2022-11-30T13:38:03;19.27;;;10.48;;
66667;SDS011;57205;51.438;-2.006;2022-11-30T13:40:39;14.02;;;8.63;;
66667;SDS011;57205;51.438;-2.006;2022-11-30T13:43:12;17.98;;;9.63;;
66667;SDS011;57205;51.438;-2.006;2022-11-30T13:45:42;16.48;;;9.88;;
66667;SDS011;57205;51.438;-2.006;2022-11-30T13:48:15;19.42;;;9.25;;
66667;SDS011;57205;51.438;-2.006;2022-11-30T13:50:45;14.02;;;8.05;;
66667;SDS011;57205;51.438;-2.006;2022-11-30T13:53:22;16.35;;;9.13;;
66667;SDS011;57205;51.438;-2.006;2022-11-30T13:58:19;16.15;;;8.38;;
66667;SDS011;57205;51.438;-2.006;2022-11-30T14:03:28;16.50;;;9.15;;
66667;SDS011;57205;51.438;-2.006;2022-11-30T14:05:56;16.52;;;8.75;;
66667;SDS011;57205;51.438;-2.006;2022-11-30T14:10:52;15.88;;;7.97;;
66667;SDS011;57205;51.438;-2.006;2022-11-30T14:18:17;16.23;;;8.63;;
66667;SDS011;57205;51.438;-2.006;2022-11-30T14:23:19;14.85;;;8.25;;
66667;SDS011;57205;51.438;-2.006;2022-11-30T14:25:49;16.50;;;9.05;;
66667;SDS011;57205;51.438;-2.006;2022-11-30T14:28:17;15.48;;;8.63;;
66667;SDS011;57205;51.438;-2.006;2022-11-30T14:30:45;16.30;;;9.43;;
66667;SDS011;57205;51.438;-2.006;2022-11-30T14:33:14;17.23;;;8.40;;
66667;SDS011;57205;51.438;-2.006;2022-11-30T14:35:43;14.30;;;7.90;;
66667;SDS011;57205;51.438;-2.006;2022-11-30T14:38:14;15.13;;;8.10;;
66667;SDS011;57205;51.438;-2.006;2022-11-30T14:40:51;14.32;;;7.88;;
66667;SDS011;57205;51.438;-2.006;2022-11-30T14:43:18;15.38;;;8.63;;
66667;SDS011;57205;51.438;-2.006;2022-11-30T14:45:55;16.27;;;9.00;;
66667;SDS011;57205;51.438;-2.006;2022-11-30T14:48:27;17.33;;;8.45;;
66667;SDS011;57205;51.438;-2.006;2022-11-30T14:51:02;16.17;;;9.38;;
66667;SDS011;57205;51.438;-2.006;2022-11-30T14:56:33;15.48;;;8.80;;
66667;SDS011;57205;51.438;-2.006;2022-11-30T15:02:01;15.63;;;9.10;;
66667;SDS011;57205;51.438;-2.006;2022-11-30T15:04:30;16.98;;;9.55;;
66667;SDS011;57205;51.438;-2.006;2022-11-30T15:07:00;17.35;;;9.65;;
66667;SDS011;57205;51.438;-2.006;2022-11-30T15:09:27;15.63;;;9.13;;
66667;SDS011;57205;51.438;-2.006;2022-11-30T15:11:55;15.88;;;8.75;;
66667;SDS011;57205;51.438;-2.006;2022-11-30T15:14:22;14.05;;;7.95;;
66667;SDS011;57205;51.438;-2.006;2022-11-30T15:16:52;16.85;;;9.55;;
66667;SDS011;57205;51.438;-2.006;2022-11-30T15:19:26;15.85;;;8.98;;
66667;SDS011;57205;51.438;-2.006;2022-11-30T15:21:53;14.48;;;7.68;;
66667;SDS011;57205;51.438;-2.006;2022-11-30T15:24:20;13.52;;;8.00;;
66667;SDS011;57205;51.438;-2.006;2022-11-30T15:26:56;15.68;;;8.60;;
66667;SDS011;57205;51.438;-2.006;2022-11-30T15:32:02;13.02;;;8.10;;
66667;SDS011;57205;51.438;-2.006;2022-11-30T15:34:43;24.10;;;9.95;;
66667;SDS011;57205;51.438;-2.006;2022-11-30T15:37:12;14.63;;;9.30;;
66667;SDS011;57205;51.438;-2.006;2022-11-30T15:39:38;20.08;;;9.32;;
66667;SDS011;57205;51.438;-2.006;2022-11-30T15:42:14;13.60;;;8.25;;
66667;SDS011;57205;51.438;-2.006;2022-11-30T15:44:44;13.18;;;7.95;;
66667;SDS011;57205;51.438;-2.006;2022-11-30T15:47:24;14.00;;;7.57;;
66667;SDS011;57205;51.438;-2.006;2022-11-30T15:49:56;12.48;;;7.50;;
66667;SDS011;57205;51.438;-2.006;2022-11-30T15:52:28;20.40;;;8.73;;
66667;SDS011;57205;51.438;-2.006;2022-11-30T15:54:55;13.38;;;8.30;;
66667;SDS011;57205;51.438;-2.006;2022-11-30T15:57:24;12.57;;;7.75;;
66667;SDS011;57205;51.438;-2.006;2022-11-30T16:00:02;14.13;;;8.13;;
66667;SDS011;57205;51.438;-2.006;2022-11-30T16:02:33;13.38;;;8.30;;
66667;SDS011;57205;51.438;-2.006;2022-11-30T16:07:31;14.15;;;8.50;;
66667;SDS011;57205;51.438;-2.006;2022-11-30T16:10:09;14.05;;;7.82;;
66667;SDS011;57205;51.438;-2.006;2022-11-30T16:12:38;15.13;;;8.25;;
66667;SDS011;57205;51.438;-2.006;2022-11-30T16:15:15;13.07;;;7.72;;
66667;SDS011;57205;51.438;-2.006;2022-11-30T16:17:58;14.98;;;8.75;;
66667;SDS011;57205;51.438;-2.006;2022-11-30T16:20:29;15.27;;;9.20;;
66667;SDS011;57205;51.438;-2.006;2022-11-30T16:22:54;16.50;;;9.20;;
66667;SDS011;57205;51.438;-2.006;2022-11-30T16:25:21;17.48;;;10.13;;
66667;SDS011;57205;51.438;-2.006;2022-11-30T16:27:48;22.85;;;10.45;;
66667;SDS011;57205;51.438;-2.006;2022-11-30T16:30:15;21.92;;;9.80;;
66667;SDS011;57205;51.438;-2.006;2022-11-30T16:32:42;25.30;;;10.38;;